Time;durP1;ratioP1;P1;durP2;ratioP2;P2;SDS_P1;SDS_P2;PMS_P1;PMS_P2;Temp;Humidity;BMP_temperature;BMP_pressure;BME280_temperature;BME280_humidity;BME280_pressure;Samples;Min_cycle;Max_cycle;Signal;HPM_P1;HPM_P2
2023/01/27 00:01:19;;;;;;;58.60;25.60;;;;;;;-1.15;89.73;98551.29;106408;1286;138186;-75
2023/01/27 00:03:46;;;;;;;57.50;26.30;;;;;;;-1.16;89.91;98554.30;106547;1286;138745;-75
2023/01/27 00:06:13;;;;;;;57.30;26.50;;;;;;;-1.15;89.93;98555.48;106494;1286;24245;-76
2023/01/27 00:08:40;;;;;;;51.00;25.40;;;;;;;-1.16;89.74;98552.77;107454;1268;140473;-75
2023/01/27 00:13:52;;;;;;;51.40;25.30;;;;;;;-1.20;89.88;98549.44;106276;1287;138255;-75
2023/01/27 00:16:19;;;;;;;53.60;26.30;;;;;;;-1.21;89.60;98548.41;106272;1286;138673;-75
2023/01/27 00:18:46;;;;;;;53.70;25.10;;;;;;;-1.22;89.51;98549.77;106373;1269;23346;-75
2023/01/27 00:26:44;;;;;;;59.20;25.50;;;;;;;-1.25;89.92;98547.85;106131;1287;138460;-74
2023/01/27 00:29:12;;;;;;;58.80;27.60;;;;;;;-1.26;90.21;98547.61;106406;1268;22557;-77
2023/01/27 00:34:25;;;;;;;56.60;26.60;;;;;;;-1.27;90.09;98556.97;106212;1287;139842;-77
2023/01/27 00:36:51;;;;;;;55.50;26.60;;;;;;;-1.27;90.01;98553.42;106307;1287;26156;-77
2023/01/27 00:39:18;;;;;;;55.60;27.60;;;;;;;-1.28;89.75;98552.60;106164;1278;138219;-75
2023/01/27 00:41:45;;;;;;;64.30;27.30;;;;;;;-1.28;90.11;98550.52;107006;1285;25347;-75
2023/01/27 00:44:12;;;;;;;55.60;26.40;;;;;;;-1.28;90.30;98552.98;106244;1285;139161;-76
2023/01/27 00:46:40;;;;;;;52.30;24.40;;;;;;;-1.30;90.05;98552.79;107461;1286;22588;-75
2023/01/27 00:49:10;;;;;;;50.20;24.30;;;;;;;-1.31;89.76;98550.98;106927;1267;139833;-76
2023/01/27 00:51:37;;;;;;;52.80;24.00;;;;;;;-1.33;89.98;98546.68;106917;1287;138163;-75
2023/01/27 00:54:04;;;;;;;48.30;22.70;;;;;;;-1.31;90.10;98546.88;106386;1287;25239;-75
2023/01/27 00:56:31;;;;;;;46.00;22.10;;;;;;;-1.31;89.90;98545.65;106184;1283;138180;-75
2023/01/27 00:58:58;;;;;;;44.90;21.90;;;;;;;-1.32;89.63;98547.92;106508;1268;22561;-75
2023/01/27 01:01:27;;;;;;;42.90;20.90;;;;;;;-1.33;89.54;98549.41;106330;1286;138236;-76
2023/01/27 01:03:54;;;;;;;43.00;20.90;;;;;;;-1.33;89.73;98547.98;106320;1286;139191;-75
2023/01/27 01:06:21;;;;;;;43.50;21.00;;;;;;;-1.32;89.52;98543.81;106498;1285;22545;-75
2023/01/27 01:08:50;;;;;;;39.00;18.70;;;;;;;-1.32;89.53;98542.71;106254;1266;139717;-75
2023/01/27 01:11:19;;;;;;;41.20;20.70;;;;;;;-1.34;89.11;98537.34;106444;1285;22552;-75
2023/01/27 01:13:47;;;;;;;44.10;19.70;;;;;;;-1.35;89.31;98532.09;107733;1285;138251;-76
2023/01/27 01:16:19;;;;;;;42.20;17.80;;;;;;;-1.36;89.19;98536.90;106406;1287;138637;-75
2023/01/27 01:18:46;;;;;;;35.50;18.10;;;;;;;-1.37;88.94;98539.87;107145;1271;22542;-76
2023/01/27 01:21:14;;;;;;;37.20;18.20;;;;;;;-1.40;88.83;98539.05;106250;1286;139761;-75
2023/01/27 01:23:43;;;;;;;37.20;18.70;;;;;;;-1.41;88.91;98533.89;108777;1287;22574;-76
2023/01/27 01:26:13;;;;;;;35.00;18.20;;;;;;;-1.42;89.19;98537.55;107940;1287;139708;-76
2023/01/27 01:28:40;;;;;;;35.60;18.70;;;;;;;-1.43;88.88;98534.84;108980;1271;22550;-76
2023/01/27 01:31:09;;;;;;;38.10;18.30;;;;;;;-1.43;88.87;98536.36;106371;1286;25343;-76
2023/01/27 01:33:36;;;;;;;40.80;18.90;;;;;;;-1.44;88.94;98535.39;106217;1287;139600;-76
2023/01/27 01:36:09;;;;;;;38.80;19.70;;;;;;;-1.44;89.19;98531.89;106737;1283;23005;-76
2023/01/27 01:38:37;;;;;;;37.90;19.00;;;;;;;-1.44;89.08;98528.65;106246;1264;138590;-76
2023/01/27 01:41:06;;;;;;;40.10;18.70;;;;;;;-1.41;89.39;98526.41;106550;1267;25287;-76
2023/01/27 01:43:34;;;;;;;44.20;21.40;;;;;;;-1.41;89.31;98529.89;106394;1286;138951;-76
2023/01/27 01:46:01;;;;;;;45.00;20.30;;;;;;;-1.40;89.27;98529.71;106413;1287;138671;-76
2023/01/27 01:48:33;;;;;;;37.80;17.70;;;;;;;-1.41;89.29;98531.75;106904;1287;23027;-76
2023/01/27 01:51:15;;;;;;;41.60;21.10;;;;;;;-1.42;88.95;98530.12;106277;1287;138739;-76
2023/01/27 01:53:46;;;;;;;41.20;20.60;;;;;;;-1.43;89.29;98531.82;106366;1287;22542;-76
2023/01/27 01:56:18;;;;;;;41.20;20.90;;;;;;;-1.42;89.36;98533.98;106183;1286;139240;-76
2023/01/27 01:58:47;;;;;;;37.60;18.60;;;;;;;-1.40;89.23;98531.65;106331;1286;22550;-76
2023/01/27 02:01:17;;;;;;;36.80;18.90;;;;;;;-1.39;89.47;98533.33;107279;1265;139911;-76
2023/01/27 02:03:51;;;;;;;45.40;19.90;;;;;;;-1.39;89.25;98530.26;106681;1280;138161;-76
2023/01/27 02:06:19;;;;;;;39.00;18.20;;;;;;;-1.40;89.42;98530.52;109254;1280;139042;-76
2023/01/27 02:08:49;;;;;;;36.00;18.70;;;;;;;-1.40;89.31;98529.65;106765;1286;139141;-76
2023/01/27 02:11:17;;;;;;;38.60;19.20;;;;;;;-1.39;89.41;98526.68;106496;1267;24268;-76
2023/01/27 02:13:44;;;;;;;37.70;20.00;;;;;;;-1.37;89.21;98527.52;107221;1272;138237;-76
2023/01/27 02:16:12;;;;;;;42.70;20.70;;;;;;;-1.36;89.49;98530.25;107261;1285;139033;-76
2023/01/27 02:18:40;;;;;;;35.70;19.10;;;;;;;-1.33;89.75;98530.52;106455;1285;139011;-76
2023/01/27 02:21:08;;;;;;;42.30;19.90;;;;;;;-1.29;89.53;98534.77;106288;1286;138461;-76
2023/01/27 02:23:34;;;;;;;37.80;18.90;;;;;;;-1.28;89.51;98536.60;106397;1287;22967;-75
2023/01/27 02:26:05;;;;;;;39.10;19.00;;;;;;;-1.28;89.57;98538.86;106278;1286;138466;-76
2023/01/27 02:28:33;;;;;;;38.50;18.10;;;;;;;-1.28;89.27;98537.99;106182;1287;139974;-76
2023/01/27 02:31:00;;;;;;;38.90;19.30;;;;;;;-1.31;88.91;98539.38;106368;1277;139234;-75
2023/01/27 02:33:27;;;;;;;38.40;18.40;;;;;;;-1.33;88.69;98542.14;106203;1286;139014;-75
2023/01/27 02:36:08;;;;;;;37.00;18.20;;;;;;;-1.36;88.83;98538.84;106461;1286;25243;-75
2023/01/27 02:38:39;;;;;;;37.10;17.40;;;;;;;-1.37;88.93;98541.98;106415;1285;138790;-77
2023/01/27 02:41:15;;;;;;;32.00;16.90;;;;;;;-1.38;88.67;98537.43;107354;1267;25403;-76
2023/01/27 02:43:42;;;;;;;33.50;18.00;;;;;;;-1.39;88.59;98535.89;106179;1287;138485;-75
2023/01/27 02:46:09;;;;;;;36.20;18.10;;;;;;;-1.40;88.29;98535.33;106179;1287;138330;-75
2023/01/27 02:48:35;;;;;;;34.40;17.80;;;;;;;-1.42;88.36;98536.12;106361;1269;138356;-75
2023/01/27 02:51:03;;;;;;;34.70;16.40;;;;;;;-1.45;88.24;98533.29;106918;1267;138708;-75
2023/01/27 02:53:31;;;;;;;37.30;18.70;;;;;;;-1.48;88.12;98531.62;106438;1276;22700;-75
2023/01/27 02:55:58;;;;;;;34.10;17.00;;;;;;;-1.50;88.27;98532.71;106301;1286;140398;-75
2023/01/27 02:58:25;;;;;;;42.00;20.80;;;;;;;-1.51;88.72;98533.92;106349;1286;139467;-75
2023/01/27 03:00:56;;;;;;;38.70;17.70;;;;;;;-1.51;88.82;98532.66;106338;1265;138701;-75
2023/01/27 03:03:23;;;;;;;39.40;19.70;;;;;;;-1.51;88.65;98534.63;106176;1286;139117;-75
2023/01/27 03:05:50;;;;;;;37.30;19.40;;;;;;;-1.50;88.98;98537.89;106349;1286;26761;-75
2023/01/27 03:08:18;;;;;;;39.90;19.50;;;;;;;-1.49;89.25;98535.65;106090;1286;140253;-75
2023/01/27 03:10:52;;;;;;;37.20;19.50;;;;;;;-1.47;89.55;98540.04;106418;1263;25355;-75
2023/01/27 03:13:26;;;;;;;39.00;17.80;;;;;;;-1.45;89.23;98538.20;106368;1283;138288;-74
2023/01/27 03:18:48;;;;;;;34.40;17.80;;;;;;;-1.42;89.20;98535.22;106327;1286;138513;-75
2023/01/27 03:21:17;;;;;;;35.00;18.60;;;;;;;-1.41;89.33;98533.39;106392;1267;138177;-75
2023/01/27 03:23:50;;;;;;;32.80;16.10;;;;;;;-1.41;88.99;98532.48;106353;1287;24220;-75
2023/01/27 03:26:20;;;;;;;36.20;16.90;;;;;;;-1.45;88.67;98527.38;106167;1277;138903;-75
2023/01/27 03:29:53;;;;;;;33.80;16.50;;;;;;;-1.46;88.77;98528.42;106299;1269;22819;-75
2023/01/27 03:31:40;;;;;;;30.40;16.20;;;;;;;-1.48;88.62;98530.52;106252;1286;138813;-75
2023/01/27 03:34:07;;;;;;;32.60;17.10;;;;;;;-1.49;88.62;98532.81;106253;1286;138340;-75
2023/01/27 03:47:50;;;;;;;31.50;15.80;;;;;;;-1.55;88.41;98518.23;107100;1279;23914;-74
2023/01/27 03:50:36;;;;;;;30.80;15.70;;;;;;;-1.56;88.40;98515.96;106451;1277;140459;-74
2023/01/27 04:01:34;;;;;;;34.00;15.80;;;;;;;-1.60;87.78;98518.09;104007;1314;138428;-74
2023/01/27 04:12:14;;;;;;;30.20;16.20;;;;;;;-1.63;87.34;98526.04;98651;1288;137834;-73
2023/01/27 04:14:44;;;;;;;31.20;15.50;;;;;;;-1.63;87.45;98528.54;106068;1288;138683;-73
2023/01/27 04:17:13;;;;;;;33.50;16.70;;;;;;;-1.62;87.77;98527.90;106252;1272;22583;-74
2023/01/27 04:19:43;;;;;;;34.10;17.10;;;;;;;-1.61;87.61;98526.36;106234;1291;137507;-74
2023/01/27 04:22:14;;;;;;;34.00;16.30;;;;;;;-1.59;87.49;98527.62;106992;1286;137994;-75
2023/01/27 04:24:41;;;;;;;32.90;16.20;;;;;;;-1.59;87.07;98524.64;106158;1286;139083;-74
2023/01/27 04:27:14;;;;;;;32.20;16.40;;;;;;;-1.60;87.21;98524.53;107468;1267;138032;-74
2023/01/27 04:29:41;;;;;;;32.50;15.90;;;;;;;-1.61;87.37;98529.97;107087;1289;22558;-74
2023/01/27 04:32:09;;;;;;;35.30;17.80;;;;;;;-1.62;87.22;98525.13;106515;1286;138064;-74
2023/01/27 04:34:36;;;;;;;34.80;16.80;;;;;;;-1.63;86.92;98524.70;107191;1283;139194;-74
2023/01/27 04:37:04;;;;;;;36.40;17.60;;;;;;;-1.63;87.22;98529.33;107331;1273;137846;-74
2023/01/27 04:39:30;;;;;;;38.10;18.10;;;;;;;-1.64;86.89;98527.26;106107;1285;137842;-74
2023/01/27 04:41:57;;;;;;;30.60;16.80;;;;;;;-1.63;86.99;98530.60;106074;1286;22559;-74
2023/01/27 04:44:23;;;;;;;30.90;15.60;;;;;;;-1.64;87.30;98532.04;105891;1291;138326;-74
2023/01/27 04:46:50;;;;;;;33.00;15.50;;;;;;;-1.64;87.22;98528.99;106097;1285;22544;-74
2023/01/27 04:49:17;;;;;;;37.10;18.00;;;;;;;-1.65;87.21;98529.91;106447;1270;137621;-73
2023/01/27 04:51:44;;;;;;;37.20;18.10;;;;;;;-1.66;87.10;98528.89;106253;1282;137828;-73
2023/01/27 04:54:10;;;;;;;34.50;17.80;;;;;;;-1.67;87.35;98526.88;106509;1286;137970;-73
2023/01/27 04:56:39;;;;;;;39.30;18.60;;;;;;;-1.68;87.64;98528.25;106242;1276;138018;-73
2023/01/27 04:59:09;;;;;;;41.90;18.50;;;;;;;-1.68;87.20;98528.09;106421;1270;24286;-73
2023/01/27 05:01:37;;;;;;;39.10;18.30;;;;;;;-1.69;87.45;98528.33;106189;1289;137710;-73
2023/01/27 05:04:04;;;;;;;43.20;19.40;;;;;;;-1.70;87.31;98529.48;106298;1288;137971;-73
2023/01/27 05:06:31;;;;;;;39.00;18.60;;;;;;;-1.70;87.53;98531.70;106248;1288;137995;-73
2023/01/27 05:08:57;;;;;;;43.00;18.90;;;;;;;-1.69;87.61;98537.21;106331;1270;139752;-73
2023/01/27 05:11:23;;;;;;;38.70;18.70;;;;;;;-1.67;87.67;98544.38;106411;1287;22549;-73
2023/01/27 05:13:50;;;;;;;37.10;18.70;;;;;;;-1.69;87.56;98542.58;106503;1287;137810;-73
2023/01/27 05:16:22;;;;;;;36.10;17.80;;;;;;;-1.69;87.68;98544.58;106316;1287;137871;-73
2023/01/27 05:18:50;;;;;;;36.00;17.80;;;;;;;-1.68;87.55;98542.68;106491;1280;138107;-72
2023/01/27 05:21:19;;;;;;;33.10;16.90;;;;;;;-1.69;87.38;98541.87;106385;1287;138257;-73
2023/01/27 05:23:46;;;;;;;35.70;18.30;;;;;;;-1.70;86.81;98548.94;108347;1280;23947;-73
2023/01/27 05:26:20;;;;;;;34.80;17.20;;;;;;;-1.71;87.15;98547.98;106369;1285;137731;-73
2023/01/27 05:28:48;;;;;;;33.80;16.80;;;;;;;-1.70;87.32;98550.75;106507;1263;24412;-73
2023/01/27 05:31:20;;;;;;;37.80;18.50;;;;;;;-1.69;87.21;98547.79;106344;1287;138336;-72
2023/01/27 05:33:49;;;;;;;32.90;15.40;;;;;;;-1.68;86.97;98543.91;106332;1287;138278;-73
2023/01/27 05:36:17;;;;;;;32.20;16.20;;;;;;;-1.68;86.94;98544.14;106432;1285;138421;-73
2023/01/27 05:38:45;;;;;;;29.60;15.00;;;;;;;-1.69;86.59;98541.58;106726;1269;137975;-73
2023/01/27 05:41:12;;;;;;;30.80;15.60;;;;;;;-1.71;86.40;98544.00;106546;1287;24196;-72
2023/01/27 05:43:41;;;;;;;30.90;15.80;;;;;;;-1.72;86.29;98543.23;106288;1288;137813;-72
2023/01/27 05:46:08;;;;;;;31.10;15.80;;;;;;;-1.72;86.25;98544.17;106325;1276;139169;-72
2023/01/27 05:48:37;;;;;;;29.70;15.20;;;;;;;-1.74;85.93;98543.56;106778;1266;138123;-72
2023/01/27 05:51:04;;;;;;;33.30;15.20;;;;;;;-1.75;85.96;98546.58;106445;1287;138095;-72
2023/01/27 05:53:31;;;;;;;31.60;16.00;;;;;;;-1.76;85.77;98543.86;106430;1287;22648;-72
2023/01/27 05:55:57;;;;;;;33.10;16.10;;;;;;;-1.76;86.04;98550.07;106270;1287;137979;-72
2023/01/27 05:58:25;;;;;;;34.90;16.90;;;;;;;-1.77;85.69;98549.30;106290;1264;139013;-72
2023/01/27 06:00:53;;;;;;;36.20;16.30;;;;;;;-1.77;85.58;98555.70;106567;1285;138720;-72
2023/01/27 06:03:19;;;;;;;32.50;16.50;;;;;;;-1.78;85.72;98558.64;106238;1287;139033;-72
2023/01/27 06:05:52;;;;;;;31.60;16.10;;;;;;;-1.78;85.93;98560.20;106435;1287;24314;-72
2023/01/27 06:08:20;;;;;;;35.00;16.00;;;;;;;-1.77;86.08;98564.77;106373;1267;137719;-72
2023/01/27 06:10:46;;;;;;;32.90;16.80;;;;;;;-1.77;85.76;98567.42;106602;1269;138572;-72
2023/01/27 06:13:12;;;;;;;33.60;16.20;;;;;;;-1.76;85.56;98570.52;106408;1288;137831;-72
2023/01/27 06:15:41;;;;;;;36.80;17.20;;;;;;;-1.76;85.43;98575.49;106495;1287;138285;-72
2023/01/27 06:18:07;;;;;;;31.10;16.10;;;;;;;-1.74;85.80;98574.46;106763;1287;139412;-73
2023/01/27 06:20:34;;;;;;;33.20;16.90;;;;;;;-1.74;85.35;98574.23;106327;1270;138562;-72
2023/01/27 06:23:00;;;;;;;31.80;17.30;;;;;;;-1.73;85.52;98573.81;106413;1280;22597;-72
2023/01/27 06:25:26;;;;;;;31.10;16.40;;;;;;;-1.74;85.19;98567.09;106553;1287;137795;-72
2023/01/27 06:27:54;;;;;;;30.20;16.20;;;;;;;-1.73;85.30;98571.92;106293;1287;137865;-71
2023/01/27 06:30:20;;;;;;;29.30;15.30;;;;;;;-1.73;85.45;98576.58;106465;1266;138163;-71
2023/01/27 06:32:46;;;;;;;36.50;17.20;;;;;;;-1.72;85.36;98580.27;106491;1287;138510;-71
2023/01/27 06:35:12;;;;;;;30.60;15.80;;;;;;;-1.72;85.31;98579.89;106324;1287;22656;-71
2023/01/27 06:37:39;;;;;;;29.80;15.30;;;;;;;-1.71;85.29;98580.15;106293;1287;138439;-71
2023/01/27 06:40:05;;;;;;;28.60;15.10;;;;;;;-1.72;84.81;98580.45;106301;1270;138493;-71
2023/01/27 06:42:34;;;;;;;34.30;16.20;;;;;;;-1.72;84.90;98582.42;106732;1287;138199;-72
2023/01/27 06:45:00;;;;;;;33.10;14.80;;;;;;;-1.72;84.76;98582.42;106298;1281;138751;-72
2023/01/27 06:47:27;;;;;;;32.20;16.10;;;;;;;-1.73;84.85;98579.77;106434;1287;25342;-72
2023/01/27 06:49:53;;;;;;;29.60;15.10;;;;;;;-1.72;84.79;98585.23;106263;1266;137839;-72
2023/01/27 06:52:19;;;;;;;32.40;15.60;;;;;;;-1.74;84.25;98585.78;106322;1287;137973;-72
2023/01/27 06:54:45;;;;;;;35.40;15.90;;;;;;;-1.75;84.39;98585.38;106305;1287;138272;-72
2023/01/27 06:57:11;;;;;;;32.10;15.80;;;;;;;-1.74;84.32;98583.91;106446;1280;137992;-73
2023/01/27 06:59:38;;;;;;;35.00;16.50;;;;;;;-1.76;84.22;98583.34;106800;1287;25819;-72
2023/01/27 07:02:04;;;;;;;31.60;16.00;;;;;;;-1.77;84.20;98585.54;106324;1287;138418;-72
2023/01/27 07:04:30;;;;;;;35.00;16.30;;;;;;;-1.75;84.25;98586.48;106187;1283;139650;-72
2023/01/27 07:06:56;;;;;;;37.10;17.90;;;;;;;-1.74;84.38;98588.35;106213;1287;137994;-72
2023/01/27 07:09:22;;;;;;;30.90;15.60;;;;;;;-1.75;84.15;98588.95;106201;1282;138038;-73
2023/01/27 07:11:48;;;;;;;31.10;14.50;;;;;;;-1.74;84.14;98594.71;108039;1271;22553;-73
2023/01/27 07:14:15;;;;;;;33.30;15.90;;;;;;;-1.74;83.99;98593.65;107942;1287;137971;-73
2023/01/27 07:16:41;;;;;;;31.80;15.40;;;;;;;-1.73;84.24;98593.55;107330;1281;138811;-72
2023/01/27 07:19:07;;;;;;;37.70;16.40;;;;;;;-1.72;84.09;98594.80;106736;1283;138060;-72
2023/01/27 07:21:33;;;;;;;32.10;15.40;;;;;;;-1.70;83.84;98594.80;107806;1266;139450;-73
2023/01/27 07:23:59;;;;;;;29.80;15.00;;;;;;;-1.69;83.46;98596.48;106437;1283;22551;-72
2023/01/27 07:26:25;;;;;;;31.10;15.00;;;;;;;-1.67;83.64;98595.64;106481;1284;138590;-73
2023/01/27 07:28:52;;;;;;;29.40;15.00;;;;;;;-1.67;83.53;98594.31;107141;1282;22530;-72
2023/01/27 07:31:18;;;;;;;28.90;14.40;;;;;;;-1.67;83.49;98601.25;106839;1269;139326;-73
2023/01/27 07:33:45;;;;;;;28.80;14.60;;;;;;;-1.67;83.28;98601.82;106262;1280;138344;-73
2023/01/27 07:36:11;;;;;;;34.20;16.20;;;;;;;-1.67;83.52;98606.59;108257;1281;138823;-73
2023/01/27 07:38:37;;;;;;;31.40;15.40;;;;;;;-1.66;83.56;98604.77;106833;1281;138233;-73
2023/01/27 07:41:05;;;;;;;34.60;15.80;;;;;;;-1.65;83.50;98605.66;108067;1268;23036;-73
2023/01/27 07:43:32;;;;;;;34.90;16.70;;;;;;;-1.63;83.32;98609.97;106367;1285;138723;-73
2023/01/27 07:45:59;;;;;;;29.60;14.40;;;;;;;-1.62;83.09;98607.10;107657;1282;137956;-73
2023/01/27 07:48:25;;;;;;;32.10;16.20;;;;;;;-1.61;83.48;98605.74;108809;1280;138154;-73
2023/01/27 07:50:51;;;;;;;25.70;14.10;;;;;;;-1.58;83.34;98598.24;107455;1263;139303;-73
2023/01/27 07:53:18;;;;;;;36.90;14.90;;;;;;;-1.57;83.14;98599.55;106927;1279;22393;-73
2023/01/27 07:55:44;;;;;;;29.60;13.60;;;;;;;-1.57;82.95;98600.20;108183;1286;139287;-73
2023/01/27 07:58:10;;;;;;;33.40;15.30;;;;;;;-1.58;82.60;98602.77;107506;1283;138002;-73
2023/01/27 08:00:36;;;;;;;30.70;15.20;;;;;;;-1.59;82.93;98604.64;109555;1266;138146;-74
2023/01/27 08:03:04;;;;;;;32.00;14.00;;;;;;;-1.60;82.68;98597.52;108343;1269;138439;-74
2023/01/27 08:05:32;;;;;;;33.10;16.00;;;;;;;-1.58;82.48;98603.94;108296;1282;138717;-73
2023/01/27 08:08:02;;;;;;;35.20;16.60;;;;;;;-1.59;82.60;98606.10;108758;1282;22336;-74
2023/01/27 08:10:29;;;;;;;38.50;16.60;;;;;;;-1.56;82.99;98608.29;107018;1285;138007;-73
2023/01/27 08:12:55;;;;;;;31.30;15.70;;;;;;;-1.54;83.03;98612.66;106206;1269;138737;-73
2023/01/27 08:15:22;;;;;;;28.00;13.90;;;;;;;-1.53;82.97;98616.16;106166;1288;138741;-73
2023/01/27 08:17:55;;;;;;;39.50;18.00;;;;;;;-1.54;82.47;98614.45;106138;1273;139523;-73
2023/01/27 08:20:24;;;;;;;33.20;16.40;;;;;;;-1.53;82.77;98621.34;106260;1288;22594;-72
2023/01/27 08:22:51;;;;;;;32.10;13.90;;;;;;;-1.54;82.85;98619.58;106213;1266;139230;-72
2023/01/27 08:25:18;;;;;;;32.50;17.10;;;;;;;-1.54;82.49;98620.53;106060;1288;138870;-73
2023/01/27 08:27:48;;;;;;;37.20;16.70;;;;;;;-1.54;82.49;98620.00;106185;1287;138190;-72
2023/01/27 08:30:15;;;;;;;34.80;17.50;;;;;;;-1.53;82.61;98621.65;106252;1287;139221;-72
2023/01/27 08:32:41;;;;;;;36.60;16.80;;;;;;;-1.51;82.48;98626.80;106084;1270;138324;-73
2023/01/27 08:35:08;;;;;;;35.20;16.70;;;;;;;-1.49;82.94;98628.27;106321;1284;138491;-72
2023/01/27 08:37:34;;;;;;;31.60;16.30;;;;;;;-1.48;82.90;98631.80;106635;1284;25527;-72
2023/01/27 08:40:00;;;;;;;36.70;17.30;;;;;;;-1.44;83.07;98634.48;106462;1270;138067;-73
2023/01/27 08:42:27;;;;;;;37.20;18.00;;;;;;;-1.42;82.87;98635.44;106798;1284;138848;-72
2023/01/27 08:44:53;;;;;;;35.00;17.40;;;;;;;-1.40;83.19;98634.20;106555;1285;138366;-72
2023/01/27 08:47:19;;;;;;;35.70;15.80;;;;;;;-1.38;82.90;98632.19;106440;1262;138474;-73
2023/01/27 08:49:46;;;;;;;35.40;17.30;;;;;;;-1.37;82.97;98632.30;106472;1282;22649;-72
2023/01/27 08:52:13;;;;;;;40.20;17.90;;;;;;;-1.37;83.07;98632.99;107685;1263;139081;-73
2023/01/27 08:54:39;;;;;;;36.90;18.20;;;;;;;-1.35;82.82;98636.67;107057;1276;138179;-73
2023/01/27 08:57:05;;;;;;;40.30;18.70;;;;;;;-1.32;82.86;98639.38;107145;1276;138396;-73
2023/01/27 08:59:31;;;;;;;39.50;18.00;;;;;;;-1.28;83.23;98641.49;106994;1276;138547;-72
2023/01/27 09:01:57;;;;;;;36.40;17.20;;;;;;;-1.26;82.92;98639.79;106674;1262;24913;-73
2023/01/27 09:04:24;;;;;;;37.40;17.90;;;;;;;-1.22;83.03;98643.36;106784;1277;138685;-73
2023/01/27 09:06:52;;;;;;;37.60;18.00;;;;;;;-1.18;82.99;98641.46;106454;1284;138232;-73
2023/01/27 09:09:19;;;;;;;33.80;17.30;;;;;;;-1.13;82.80;98639.53;106437;1270;138176;-72
2023/01/27 09:11:46;;;;;;;34.70;16.70;;;;;;;-1.10;82.51;98636.66;106424;1284;138682;-73
2023/01/27 09:14:12;;;;;;;37.10;16.90;;;;;;;-1.06;82.25;98634.67;106567;1264;25287;-73
2023/01/27 09:16:39;;;;;;;34.40;16.90;;;;;;;-1.04;82.22;98631.52;106549;1275;139648;-72
2023/01/27 09:19:06;;;;;;;40.80;17.10;;;;;;;-1.00;82.13;98635.77;106611;1276;138966;-72
2023/01/27 09:21:32;;;;;;;38.20;17.60;;;;;;;-0.95;82.21;98637.73;106825;1276;138332;-72
2023/01/27 09:23:58;;;;;;;35.50;17.90;;;;;;;-0.90;82.08;98637.41;106823;1265;138175;-72
2023/01/27 09:26:24;;;;;;;35.10;16.60;;;;;;;-0.87;82.13;98639.52;106626;1282;22940;-72
2023/01/27 09:28:51;;;;;;;36.00;16.30;;;;;;;-0.83;82.00;98637.14;107433;1277;138744;-72
2023/01/27 09:31:17;;;;;;;40.60;17.90;;;;;;;-0.79;81.71;98640.85;106690;1276;138174;-72
2023/01/27 09:33:43;;;;;;;39.30;18.20;;;;;;;-0.77;81.61;98644.48;106622;1264;25543;-72
2023/01/27 09:36:20;;;;;;;34.50;17.10;;;;;;;-0.75;81.65;98646.06;106352;1283;138030;-72
2023/01/27 09:38:57;;;;;;;37.70;17.90;;;;;;;-0.71;81.72;98646.40;106456;1283;22556;-72
2023/01/27 09:41:32;;;;;;;38.70;18.80;;;;;;;-0.68;81.66;98649.65;106348;1260;138194;-72
2023/01/27 09:44:15;;;;;;;34.90;18.50;;;;;;;-0.65;81.71;98645.55;106460;1264;25425;-72
2023/01/27 09:46:59;;;;;;;43.90;20.20;;;;;;;-0.62;81.70;98644.33;106591;1276;22655;-73
2023/01/27 09:49:47;;;;;;;40.60;18.00;;;;;;;-0.60;81.54;98641.73;106697;1277;22533;-72
2023/01/27 09:52:24;;;;;;;40.20;18.90;;;;;;;-0.57;81.40;98640.70;106300;1285;22563;-72
2023/01/27 09:55:07;;;;;;;39.50;18.80;;;;;;;-0.53;81.61;98636.35;106476;1266;137986;-72
2023/01/27 09:57:54;;;;;;;35.30;16.90;;;;;;;-0.51;81.46;98639.52;106700;1284;22531;-73
2023/01/27 10:00:26;;;;;;;41.10;18.90;;;;;;;-0.49;81.29;98640.55;106512;1283;138197;-74
2023/01/27 10:03:22;;;;;;;36.00;17.40;;;;;;;-0.47;81.28;98631.45;106629;1263;22532;-76
2023/01/27 10:05:53;;;;;;;41.10;18.00;;;;;;;-0.46;81.14;98631.35;106415;1271;138154;-75
2023/01/27 10:08:22;;;;;;;37.70;18.60;;;;;;;-0.45;80.90;98629.27;106316;1285;22609;-75
2023/01/27 10:11:08;;;;;;;33.10;16.30;;;;;;;-0.45;80.85;98622.25;106391;1284;22807;-75
2023/01/27 10:13:43;;;;;;;43.60;18.10;;;;;;;-0.47;80.84;98620.39;106895;1273;22681;-76
2023/01/27 10:16:42;;;;;;;41.60;18.60;;;;;;;-0.47;81.08;98617.84;106512;1267;22600;-75
2023/01/27 10:19:23;;;;;;;50.80;20.00;;;;;;;-0.45;81.05;98616.54;106458;1282;138510;-76
2023/01/27 10:22:20;;;;;;;40.90;17.70;;;;;;;-0.42;81.41;98609.81;106503;1282;24393;-76
2023/01/27 10:25:10;;;;;;;41.00;18.90;;;;;;;-0.39;81.13;98613.70;106536;1264;138471;-76
2023/01/27 10:27:39;;;;;;;36.80;18.70;;;;;;;-0.36;81.19;98615.20;106614;1284;22648;-77
2023/01/27 10:30:41;;;;;;;37.10;19.60;;;;;;;-0.34;81.36;98608.94;107635;1282;138036;-76
2023/01/27 10:33:20;;;;;;;41.90;19.10;;;;;;;-0.30;81.72;98607.11;106315;1285;22541;-77
2023/01/27 10:35:57;;;;;;;42.60;19.30;;;;;;;-0.27;81.84;98607.23;106604;1283;138221;-77
2023/01/27 10:38:45;;;;;;;38.00;19.00;;;;;;;-0.23;81.27;98604.98;106444;1283;22556;-77
2023/01/27 10:41:43;;;;;;;38.30;18.90;;;;;;;-0.20;81.29;98605.20;106196;1283;138223;-77
2023/01/27 10:44:29;;;;;;;37.50;17.50;;;;;;;-0.18;81.22;98606.95;106488;1282;25467;-79
2023/01/27 10:47:29;;;;;;;34.30;17.10;;;;;;;-0.15;81.11;98607.72;106415;1283;24516;-78
2023/01/27 10:50:00;;;;;;;41.10;17.30;;;;;;;-0.15;80.76;98607.89;106889;1282;25230;-78
2023/01/27 10:52:37;;;;;;;40.90;18.30;;;;;;;-0.13;81.07;98604.09;106463;1268;22664;-78
2023/01/27 10:55:21;;;;;;;38.30;18.10;;;;;;;-0.10;81.38;98604.95;106828;1282;138406;-79
2023/01/27 10:57:58;;;;;;;37.90;17.10;;;;;;;-0.06;81.13;98607.79;106702;1274;23895;-79
2023/01/27 11:00:25;;;;;;;40.60;18.50;;;;;;;-0.07;80.98;98607.49;107003;1283;138630;-79
2023/01/27 11:03:00;;;;;;;41.70;18.10;;;;;;;-0.04;80.97;98606.27;106445;1283;22548;-79
2023/01/27 11:05:34;;;;;;;35.00;17.20;;;;;;;-0.01;80.68;98610.05;106757;1282;139205;-77
2023/01/27 11:08:24;;;;;;;33.40;15.30;;;;;;;-0.01;80.34;98613.20;106351;1269;22914;-80
2023/01/27 11:13:40;;;;;;;31.60;17.40;;;;;;;0.05;80.58;98613.30;106376;1276;25330;-76
2023/01/27 11:16:14;;;;;;;36.30;17.40;;;;;;;0.14;82.33;98609.25;109067;1260;22651;-79
2023/01/27 11:18:45;;;;;;;30.80;16.10;;;;;;;0.28;81.07;98612.16;106595;1279;138434;-79
2023/01/27 11:21:19;;;;;;;33.90;16.50;;;;;;;0.30;80.15;98608.67;106684;1279;25406;-79
2023/01/27 11:23:54;;;;;;;32.30;15.10;;;;;;;0.32;79.90;98608.66;106785;1276;139072;-79
2023/01/27 11:26:39;;;;;;;33.70;16.20;;;;;;;0.32;79.90;98611.63;106771;1275;24265;-78
2023/01/27 11:29:39;;;;;;;39.10;17.20;;;;;;;0.32;79.55;98608.80;106560;1278;23032;-78
2023/01/27 11:32:33;;;;;;;33.10;16.70;;;;;;;0.30;79.19;98612.12;106710;1281;27055;-78
2023/01/27 11:35:12;;;;;;;35.90;17.40;;;;;;;0.27;78.98;98610.65;106555;1279;22551;-78
2023/01/27 11:37:50;;;;;;;32.40;16.60;;;;;;;0.24;79.06;98606.75;106844;1263;138707;-78
2023/01/27 11:40:25;;;;;;;37.30;17.50;;;;;;;0.18;78.83;98609.29;106712;1279;24476;-78
2023/01/27 11:42:54;;;;;;;33.00;16.40;;;;;;;0.14;79.13;98611.25;106454;1279;137987;-78
2023/01/27 11:45:20;;;;;;;31.30;15.50;;;;;;;0.10;78.95;98604.75;106690;1279;24353;-78
2023/01/27 11:47:51;;;;;;;36.20;16.60;;;;;;;0.06;79.05;98604.59;106532;1261;138391;-78
2023/01/27 11:50:21;;;;;;;42.40;18.20;;;;;;;0.04;78.92;98609.35;106630;1276;22557;-78
2023/01/27 11:52:50;;;;;;;32.20;16.60;;;;;;;-0.02;78.87;98605.36;106669;1276;22535;-77
2023/01/27 11:55:25;;;;;;;30.90;15.60;;;;;;;-0.06;79.24;98609.23;106675;1279;139020;-77
2023/01/27 11:58:15;;;;;;;36.90;15.50;;;;;;;-0.07;79.49;98607.02;106767;1261;24264;-77
2023/01/27 12:00:55;;;;;;;32.50;16.00;;;;;;;-0.10;79.48;98606.92;106484;1266;138562;-77
2023/01/27 12:03:42;;;;;;;33.60;16.20;;;;;;;-0.10;79.65;98610.39;106606;1281;24270;-77